Time;durP1;ratioP1;P1;durP2;ratioP2;P2;SDS_P1;SDS_P2;PMS_P1;PMS_P2;Temp;Humidity;BMP_temperature;BMP_pressure;BME280_temperature;BME280_humidity;BME280_pressure;Samples;Min_cycle;Max_cycle;Signal;HPM_P1;HPM_P2
2023/05/22 00:00:44;;;;;;;;;;;;;;;20.30;63.80;99312.28;5092231;28;19947;-39
2023/05/22 00:03:10;;;;;;;;;;;;;;;20.21;64.44;99308.56;5092756;28;19912;-40
2023/05/22 00:05:37;;;;;;;;;;;;;;;20.19;65.00;99311.53;5092950;28;19947;-41
2023/05/22 00:08:04;;;;;;;;;;;;;;;20.31;64.25;99309.31;5092900;28;19919;-41
2023/05/22 00:10:29;;;;;;;;;;;;;;;20.43;64.25;99302.78;5092631;28;20001;-40
2023/05/22 00:12:55;;;;;;;;;;;;;;;20.53;63.99;99308.09;5092586;28;20055;-41
2023/05/22 00:15:20;;;;;;;;;;;;;;;20.51;64.38;99308.38;5092869;28;19919;-40
2023/05/22 00:17:46;;;;;;;;;;;;;;;20.39;65.79;99304.41;5092554;28;19969;-40
2023/05/22 00:20:11;;;;;;;;;;;;;;;20.35;66.01;99304.13;5092523;28;19912;-41
2023/05/22 00:22:37;;;;;;;;;;;;;;;20.36;65.64;99302.25;5092565;28;19912;-40
2023/05/22 00:25:03;;;;;;;;;;;;;;;20.35;65.91;99301.44;5092640;28;19912;-40
2023/05/22 00:27:28;;;;;;;;;;;;;;;20.38;65.91;99303.59;5092165;28;19913;-40
2023/05/22 00:29:53;;;;;;;;;;;;;;;20.30;65.68;99301.47;5092513;28;19927;-40
2023/05/22 00:32:19;;;;;;;;;;;;;;;20.38;65.31;99308.19;5092395;28;19913;-40
2023/05/22 00:34:44;;;;;;;;;;;;;;;20.30;65.18;99301.47;5092058;28;19974;-40
2023/05/22 00:37:09;;;;;;;;;;;;;;;20.36;64.17;99311.16;5091998;28;20702;-41
2023/05/22 00:39:35;;;;;;;;;;;;;;;20.40;63.97;99308.72;5092492;28;19912;-41
2023/05/22 00:42:00;;;;;;;;;;;;;;;20.54;63.55;99317.81;5092121;28;19919;-41
2023/05/22 00:44:26;;;;;;;;;;;;;;;20.28;63.60;99298.25;5092623;28;19919;-41
2023/05/22 00:46:51;;;;;;;;;;;;;;;20.29;65.31;99322.28;5092183;28;20342;-40
2023/05/22 00:49:16;;;;;;;;;;;;;;;20.28;64.12;99322.56;5091934;28;19973;-40
2023/05/22 00:51:41;;;;;;;;;;;;;;;20.30;63.25;99310.38;5091921;28;20364;-41
2023/05/22 00:54:08;;;;;;;;;;;;;;;20.09;63.63;99323.19;5091384;28;19951;-41
2023/05/22 00:56:33;;;;;;;;;;;;;;;20.18;63.31;99315.31;5091564;28;19923;-41
2023/05/22 00:58:59;;;;;;;;;;;;;;;20.17;63.00;99313.69;5092066;28;19972;-42
2023/05/22 01:01:25;;;;;;;;;;;;;;;20.30;62.72;99306.88;5091680;28;19912;-42
2023/05/22 01:03:52;;;;;;;;;;;;;;;20.47;62.47;99312.72;5091483;28;19920;-42
2023/05/22 01:06:20;;;;;;;;;;;;;;;20.44;62.50;99310.56;5091477;28;19913;-41
2023/05/22 01:08:45;;;;;;;;;;;;;;;20.45;64.04;99306.81;5090962;28;19981;-41
2023/05/22 01:11:21;;;;;;;;;;;;;;;20.46;64.66;99310.31;5091867;28;20370;-40
2023/05/22 01:14:03;;;;;;;;;;;;;;;20.51;64.01;99310.28;5091589;28;19912;-40
2023/05/22 01:16:37;;;;;;;;;;;;;;;20.45;63.02;99316.81;5091806;28;19923;-41
2023/05/22 01:19:08;;;;;;;;;;;;;;;20.34;64.58;99312.53;5091457;28;19977;-41
2023/05/22 01:21:48;;;;;;;;;;;;;;;20.33;63.94;99317.13;5091487;28;20015;-41
2023/05/22 01:24:20;;;;;;;;;;;;;;;20.24;64.70;99310.72;5091722;28;19980;-41
2023/05/22 01:27:04;;;;;;;;;;;;;;;20.21;64.93;99311.25;5091297;28;20280;-41
2023/05/22 01:29:45;;;;;;;;;;;;;;;20.28;65.17;99315.25;5091109;28;19973;-41
2023/05/22 01:32:13;;;;;;;;;;;;;;;20.35;65.67;99304.13;5091291;28;19916;-40
2023/05/22 01:34:41;;;;;;;;;;;;;;;20.41;65.53;99313.84;5091816;28;19999;-41
2023/05/22 01:37:08;;;;;;;;;;;;;;;20.42;65.89;99309.25;5091391;28;19995;-41
2023/05/22 01:39:35;;;;;;;;;;;;;;;20.29;66.28;99311.47;5091401;28;19912;-41
2023/05/22 01:42:01;;;;;;;;;;;;;;;20.22;66.11;99304.75;5091714;28;19911;-41
2023/05/22 01:44:26;;;;;;;;;;;;;;;20.16;65.81;99317.47;5091281;28;20448;-42
2023/05/22 01:46:51;;;;;;;;;;;;;;;20.09;66.42;99306.19;5090965;28;19913;-41
2023/05/22 01:49:17;;;;;;;;;;;;;;;20.14;66.51;99298.03;5090955;28;19916;-41
2023/05/22 01:51:42;;;;;;;;;;;;;;;20.11;66.69;99306.72;5090240;28;19940;-41
2023/05/22 01:54:13;;;;;;;;;;;;;;;20.24;66.06;99305.31;5091027;28;19919;-41
2023/05/22 01:56:45;;;;;;;;;;;;;;;20.06;65.83;99256.22;5091130;28;20276;-41
2023/05/22 01:59:20;;;;;;;;;;;;;;;20.27;65.62;99296.63;5091154;28;19912;-41
2023/05/22 02:01:46;;;;;;;;;;;;;;;20.18;66.00;99298.28;5091148;28;19912;-41
2023/05/22 02:04:13;;;;;;;;;;;;;;;20.04;66.22;99304.28;5091009;28;19947;-40
2023/05/22 02:06:38;;;;;;;;;;;;;;;20.16;66.42;99297.75;5093346;28;19912;-41
2023/05/22 02:09:05;;;;;;;;;;;;;;;20.24;66.73;99303.41;5094659;28;19916;-41
2023/05/22 02:11:31;;;;;;;;;;;;;;;20.33;66.93;99300.09;5094338;28;20375;-41
2023/05/22 02:13:56;;;;;;;;;;;;;;;20.33;66.04;99311.72;5094933;28;19912;-41
2023/05/22 02:16:22;;;;;;;;;;;;;;;20.39;64.77;99312.50;5095144;28;19985;-41
2023/05/22 02:18:48;;;;;;;;;;;;;;;20.40;63.99;99306.81;5095216;28;19969;-41
2023/05/22 02:21:13;;;;;;;;;;;;;;;20.40;64.44;99306.81;5094790;28;20346;-41
2023/05/22 02:23:38;;;;;;;;;;;;;;;20.35;65.41;99300.63;5094688;28;19960;-41
2023/05/22 02:26:04;;;;;;;;;;;;;;;20.26;65.95;99305.84;5094443;28;20280;-41
2023/05/22 02:28:29;;;;;;;;;;;;;;;20.06;66.74;99307.53;5094115;28;19920;-41
2023/05/22 02:30:55;;;;;;;;;;;;;;;19.72;67.16;99307.38;5094362;28;19920;-42
2023/05/22 02:33:20;;;;;;;;;;;;;;;19.76;66.66;99308.44;5094881;28;19937;-42
2023/05/22 02:35:45;;;;;;;;;;;;;;;19.88;65.85;99316.25;5094749;28;19912;-41
2023/05/22 02:38:11;;;;;;;;;;;;;;;19.93;66.43;99318.91;5094368;28;19912;-41
2023/05/22 02:40:36;;;;;;;;;;;;;;;19.90;66.76;99312.19;5094273;28;19913;-42
2023/05/22 02:43:02;;;;;;;;;;;;;;;20.05;66.52;99318.63;5093890;28;19922;-41
2023/05/22 02:45:27;;;;;;;;;;;;;;;20.07;66.46;99316.44;5093858;28;19916;-41
2023/05/22 02:47:52;;;;;;;;;;;;;;;20.13;66.84;99312.63;5093939;28;20004;-41
2023/05/22 02:50:18;;;;;;;;;;;;;;;20.06;67.31;99310.22;5093586;28;19951;-41
2023/05/22 02:52:44;;;;;;;;;;;;;;;20.17;67.00;99316.41;5093747;28;20330;-41
2023/05/22 02:55:09;;;;;;;;;;;;;;;20.24;65.88;99308.81;5094209;28;19970;-41
2023/05/22 02:57:35;;;;;;;;;;;;;;;20.22;66.86;99304.75;5094035;28;19912;-41
2023/05/22 03:00:00;;;;;;;;;;;;;;;20.25;67.07;99313.09;5093999;28;19916;-41
2023/05/22 03:02:31;;;;;;;;;;;;;;;20.24;66.72;99305.31;5094320;28;20265;-41
2023/05/22 03:04:57;;;;;;;;;;;;;;;20.22;67.40;99307.44;5093362;28;19923;-42
2023/05/22 03:07:25;;;;;;;;;;;;;;;20.20;67.42;99298.81;5093338;28;19970;-40
2023/05/22 03:09:50;;;;;;;;;;;;;;;20.09;66.98;99312.38;5093287;28;20328;-41
2023/05/22 03:12:15;;;;;;;;;;;;;;;20.12;67.65;99316.41;5093459;28;19916;-41
2023/05/22 03:14:41;;;;;;;;;;;;;;;20.18;67.57;99314.50;5093336;28;19988;-41
2023/05/22 03:17:06;;;;;;;;;;;;;;;20.21;66.61;99306.66;5092848;28;20007;-41
2023/05/22 03:19:31;;;;;;;;;;;;;;;20.05;66.77;99311.31;5093069;28;19912;-41
2023/05/22 03:21:56;;;;;;;;;;;;;;;20.07;67.83;99314.56;5093344;28;19996;-41
2023/05/22 03:24:22;;;;;;;;;;;;;;;19.97;68.57;99319.16;5093092;28;19912;-41
2023/05/22 03:26:47;;;;;;;;;;;;;;;20.06;68.75;99321.03;5092965;28;20046;-41
2023/05/22 03:29:12;;;;;;;;;;;;;;;20.04;68.54;99311.59;5092797;28;19952;-41
2023/05/22 03:31:38;;;;;;;;;;;;;;;20.06;68.81;99310.22;5092757;28;19939;-41
2023/05/22 03:34:04;;;;;;;;;;;;;;;20.05;69.16;99311.31;5092839;28;19963;-40
2023/05/22 03:36:32;;;;;;;;;;;;;;;20.11;67.86;99314.81;5093003;28;19952;-41
2023/05/22 03:38:58;;;;;;;;;;;;;;;20.23;67.34;99311.78;5092779;28;19967;-40
2023/05/22 03:41:23;;;;;;;;;;;;;;;20.19;66.35;99314.22;5092802;28;19952;-41
2023/05/22 03:43:48;;;;;;;;;;;;;;;20.11;66.86;99315.59;5092734;28;19919;-40
2023/05/22 03:46:14;;;;;;;;;;;;;;;20.20;67.16;99307.75;5092562;28;19912;-40
2023/05/22 03:48:39;;;;;;;;;;;;;;;20.28;67.66;99311.75;5092757;28;19912;-41
2023/05/22 03:51:05;;;;;;;;;;;;;;;20.31;66.71;99316.59;5092739;28;19912;-41
2023/05/22 03:53:30;;;;;;;;;;;;;;;20.39;66.08;99307.94;5092282;28;19935;-40
2023/05/22 03:55:58;;;;;;;;;;;;;;;20.45;66.19;99320.31;5092371;28;20007;-41
2023/05/22 03:58:24;;;;;;;;;;;;;;;20.66;66.16;99322.94;5092665;28;19912;-41
2023/05/22 04:00:51;;;;;;;;;;;;;;;20.56;66.99;99310.25;5092428;28;20277;-41
2023/05/22 04:03:18;;;;;;;;;;;;;;;20.83;64.33;99317.94;5092448;28;20285;-41
2023/05/22 04:05:44;;;;;;;;;;;;;;;20.86;63.43;99322.75;5092454;28;20051;-41
2023/05/22 04:08:09;;;;;;;;;;;;;;;20.98;63.39;99317.03;5092314;28;20447;-41
2023/05/22 04:10:37;;;;;;;;;;;;;;;21.14;62.91;99317.69;5092299;28;19999;-42
2023/05/22 04:13:02;;;;;;;;;;;;;;;21.27;61.27;99319.75;5092851;28;19949;-41
2023/05/22 04:15:27;;;;;;;;;;;;;;;21.32;60.66;99316.16;5092436;28;19970;-41
2023/05/22 04:17:53;;;;;;;;;;;;;;;21.38;59.87;99317.75;5092385;28;20491;-43
2023/05/22 04:20:21;;;;;;;;;;;;;;;21.25;61.30;99313.00;5092107;28;19916;-41
2023/05/22 04:22:47;;;;;;;;;;;;;;;21.47;60.74;99310.63;5092575;28;19912;-41
2023/05/22 04:25:13;;;;;;;;;;;;;;;21.41;66.30;99319.88;5092401;28;19961;-41
2023/05/22 04:27:38;;;;;;;;;;;;;;;21.52;61.50;99319.81;5091980;28;19924;-42
2023/05/22 04:30:06;;;;;;;;;;;;;;;21.23;61.90;99320.59;5091260;28;19924;-42
2023/05/22 04:32:31;;;;;;;;;;;;;;;21.43;61.30;99322.31;5092729;28;19995;-42
2023/05/22 04:34:59;;;;;;;;;;;;;;;21.42;60.52;99321.50;5092461;28;20352;-42
2023/05/22 04:37:27;;;;;;;;;;;;;;;21.48;59.53;99325.00;5092289;28;19920;-42
2023/05/22 04:39:56;;;;;;;;;;;;;;;21.12;60.94;99333.41;5091959;28;19955;-42
2023/05/22 04:42:24;;;;;;;;;;;;;;;21.33;59.98;99327.81;5091602;28;20011;-42
2023/05/22 04:44:51;;;;;;;;;;;;;;;21.37;59.82;99329.66;5091856;28;19919;-41
2023/05/22 04:47:17;;;;;;;;;;;;;;;21.27;59.65;99330.56;5091739;28;19913;-41
2023/05/22 04:49:44;;;;;;;;;;;;;;;21.17;59.54;99329.84;5089685;28;19936;-42
2023/05/22 04:52:10;;;;;;;;;;;;;;;21.17;59.38;99324.44;5089821;28;20369;-41
2023/05/22 04:54:35;;;;;;;;;;;;;;;21.28;58.71;99325.94;5089731;28;20028;-42
2023/05/22 04:57:03;;;;;;;;;;;;;;;21.40;59.05;99333.69;5089942;28;19912;-41
2023/05/22 04:59:28;;;;;;;;;;;;;;;21.53;58.35;99330.34;5089517;28;19978;-42
2023/05/22 05:01:53;;;;;;;;;;;;;;;21.67;58.03;99333.19;5090023;28;20432;-42
2023/05/22 05:04:19;;;;;;;;;;;;;;;21.91;57.29;99337.81;5090710;28;20058;-41
2023/05/22 05:06:44;;;;;;;;;;;;;;;21.84;57.55;99333.56;5091049;28;19912;-42
2023/05/22 05:09:09;;;;;;;;;;;;;;;21.60;57.45;99298.34;5091428;28;19923;-43
2023/05/22 05:11:35;;;;;;;;;;;;;;;21.80;57.34;99328.97;5091217;28;19912;-41
2023/05/22 05:14:00;;;;;;;;;;;;;;;21.47;58.28;99332.28;5091394;28;19935;-42
2023/05/22 05:16:26;;;;;;;;;;;;;;;21.37;58.34;99335.06;5091025;28;19912;-42
2023/05/22 05:18:52;;;;;;;;;;;;;;;21.43;58.08;99339.34;5090533;28;19934;-41
2023/05/22 05:21:19;;;;;;;;;;;;;;;21.06;59.46;99334.53;5089620;28;20302;-41
2023/05/22 05:23:44;;;;;;;;;;;;;;;20.98;59.68;99343.25;5089425;28;19952;-42
2023/05/22 05:26:09;;;;;;;;;;;;;;;21.34;58.78;99337.53;5090765;28;19919;-42
2023/05/22 05:28:35;;;;;;;;;;;;;;;21.33;59.07;99335.94;5090625;28;19920;-41
2023/05/22 05:31:01;;;;;;;;;;;;;;;21.27;59.05;99337.88;5090957;28;19934;-42
2023/05/22 05:33:26;;;;;;;;;;;;;;;21.65;58.32;99347.03;5090894;28;19935;-41
2023/05/22 05:35:52;;;;;;;;;;;;;;;21.92;57.43;99345.66;5090571;28;19912;-41
2023/05/22 05:38:18;;;;;;;;;;;;;;;21.96;57.19;99343.97;5090848;28;19912;-41
2023/05/22 05:40:43;;;;;;;;;;;;;;;21.24;58.33;99341.16;5090465;28;20268;-41
2023/05/22 05:43:09;;;;;;;;;;;;;;;21.39;58.52;99349.13;5090662;28;19919;-42
2023/05/22 05:45:34;;;;;;;;;;;;;;;21.37;58.40;99359.44;5083972;28;20005;-41
2023/05/22 05:47:59;;;;;;;;;;;;;;;21.62;57.30;99365.72;5075738;28;19952;-41
2023/05/22 05:50:25;;;;;;;;;;;;;;;21.69;57.21;99360.81;5090002;28;19916;-42
2023/05/22 05:52:50;;;;;;;;;;;;;;;21.89;57.36;99358.97;5090193;28;19920;-42
2023/05/22 05:55:15;;;;;;;;;;;;;;;21.99;57.80;99361.53;5090837;28;19912;-46
2023/05/22 05:57:41;;;;;;;;;;;;;;;22.15;57.84;99367.63;5089023;28;19916;-46
2023/05/22 06:00:09;;;;;;;;;;;;;;;22.16;58.21;99370.03;5090689;28;19966;-41
2023/05/22 06:02:34;;;;;;;;;;;;;;;22.24;58.07;99366.69;5089748;28;19924;-41
2023/05/22 06:05:00;;;;;;;;;;;;;;;22.75;57.42;99380.69;5089675;28;19916;-42
2023/05/22 06:07:27;;;;;;;;;;;;;;;23.07;56.62;99381.88;5088688;28;20033;-45
2023/05/22 06:09:52;;;;;;;;;;;;;;;23.41;55.60;99381.59;5087458;28;19912;-45
2023/05/22 06:12:17;;;;;;;;;;;;;;;23.43;55.23;99388.31;5090190;28;19973;-46
2023/05/22 06:14:43;;;;;;;;;;;;;;;23.73;54.22;99380.75;5090415;28;19916;-45
2023/05/22 06:17:08;;;;;;;;;;;;;;;23.68;53.19;99385.47;5091160;28;20260;-47
2023/05/22 06:19:34;;;;;;;;;;;;;;;23.98;52.52;99387.66;5087356;28;19920;-46
2023/05/22 06:21:59;;;;;;;;;;;;;;;24.20;52.09;99386.16;5089780;28;20041;-45
2023/05/22 06:24:25;;;;;;;;;;;;;;;24.09;52.12;99384.75;5088595;28;19916;-45
2023/05/22 06:26:50;;;;;;;;;;;;;;;24.16;51.68;99391.41;5088777;28;19923;-45
2023/05/22 06:29:16;;;;;;;;;;;;;;;24.46;51.05;99388.34;5089269;28;20010;-46
2023/05/22 06:31:41;;;;;;;;;;;;;;;24.87;49.74;99385.56;5089749;28;19920;-46
2023/05/22 06:34:06;;;;;;;;;;;;;;;25.08;48.88;99377.72;5090005;28;20315;-46
2023/05/22 06:36:33;;;;;;;;;;;;;;;25.47;47.90;99387.13;5089558;28;20368;-46
2023/05/22 06:38:59;;;;;;;;;;;;;;;25.72;48.00;99387.59;5089899;28;19912;-46
2023/05/22 06:41:25;;;;;;;;;;;;;;;26.02;47.79;99387.94;5089681;28;20276;-46
2023/05/22 06:43:50;;;;;;;;;;;;;;;26.55;45.35;99386.16;5090324;28;19912;-46
2023/05/22 06:46:16;;;;;;;;;;;;;;;26.45;46.10;99392.72;5090058;28;19969;-46
2023/05/22 06:48:41;;;;;;;;;;;;;;;26.90;44.28;99400.66;5090063;28;19957;-46
2023/05/22 06:51:08;;;;;;;;;;;;;;;26.68;43.61;99398.88;5090236;28;19913;-45
2023/05/22 06:53:34;;;;;;;;;;;;;;;27.18;41.66;99403.06;5092371;28;19916;-45
2023/05/22 06:55:59;;;;;;;;;;;;;;;27.76;39.90;99395.41;5093606;28;20380;-45
2023/05/22 06:58:25;;;;;;;;;;;;;;;28.41;38.92;99394.19;5093616;28;20128;-45
2023/05/22 07:00:50;;;;;;;;;;;;;;;28.85;36.33;99383.75;5093567;28;19986;-47
2023/05/22 07:03:16;;;;;;;;;;;;;;;28.80;35.24;99383.94;5093742;28;20387;-46
2023/05/22 07:05:41;;;;;;;;;;;;;;;29.38;34.01;99389.59;5093405;28;19999;-46
2023/05/22 07:08:07;;;;;;;;;;;;;;;30.20;32.24;99394.31;5093544;28;20052;-45
2023/05/22 07:10:32;;;;;;;;;;;;;;;30.35;33.32;99390.09;5093486;28;20376;-45
2023/05/22 07:12:57;;;;;;;;;;;;;;;30.51;32.34;99394.88;5093090;28;19912;-46
2023/05/22 07:15:23;;;;;;;;;;;;;;;30.65;31.29;99394.50;5093374;28;19955;-45
2023/05/22 07:17:48;;;;;;;;;;;;;;;31.25;29.42;99392.72;5093470;28;19919;-46
2023/05/22 07:20:14;;;;;;;;;;;;;;;31.56;30.05;99400.25;5093443;28;19939;-46
2023/05/22 07:22:40;;;;;;;;;;;;;;;31.11;28.54;99392.31;5093060;28;20295;-46
2023/05/22 07:25:05;;;;;;;;;;;;;;;30.70;29.88;99394.28;5093229;28;19919;-45
2023/05/22 07:27:31;;;;;;;;;;;;;;;30.34;29.88;99395.94;5092415;28;19920;-46
2023/05/22 07:29:56;;;;;;;;;;;;;;;29.86;31.37;99392.03;5092543;28;19929;-45
2023/05/22 07:32:21;;;;;;;;;;;;;;;30.10;31.93;99392.03;5089292;28;19916;-45
2023/05/22 07:34:46;;;;;;;;;;;;;;;30.39;31.59;99395.69;5092204;28;20019;-45
2023/05/22 07:37:13;;;;;;;;;;;;;;;30.35;29.96;99403.03;5092394;28;19920;-46
2023/05/22 07:39:38;;;;;;;;;;;;;;;30.52;30.39;99396.47;5092340;28;19992;-45
2023/05/22 07:42:03;;;;;;;;;;;;;;;30.34;30.70;99393.19;5092444;28;20006;-45
2023/05/22 07:44:29;;;;;;;;;;;;;;;30.03;30.74;99394.53;5097799;28;19919;-46
2023/05/22 07:46:54;;;;;;;;;;;;;;;30.80;30.22;99391.03;5098382;28;19957;-46
2023/05/22 07:49:20;;;;;;;;;;;;;;;30.89;30.70;99388.16;5092423;28;20023;-46
2023/05/22 07:51:46;;;;;;;;;;;;;;;30.68;29.67;99393.81;5092568;28;19912;-46
2023/05/22 07:54:13;;;;;;;;;;;;;;;30.51;29.79;99392.13;5092412;28;19919;-45
2023/05/22 07:56:40;;;;;;;;;;;;;;;30.48;29.79;99395.56;5092468;28;19912;-45
2023/05/22 07:59:06;;;;;;;;;;;;;;;31.07;29.85;99392.25;5092607;28;19912;-45
2023/05/22 08:01:31;;;;;;;;;;;;;;;31.72;28.18;99393.97;5092448;28;20435;-45
2023/05/22 08:03:57;;;;;;;;;;;;;;;32.31;27.86;99390.34;5091628;28;19916;-47
2023/05/22 08:06:22;;;;;;;;;;;;;;;32.92;27.86;99394.44;5091729;28;20384;-47
2023/05/22 08:08:47;;;;;;;;;;;;;;;32.81;28.81;99395.38;5092353;28;19912;-47
2023/05/22 08:11:13;;;;;;;;;;;;;;;32.00;26.38;99395.84;5092218;28;19916;-47
2023/05/22 08:13:38;;;;;;;;;;;;;;;30.83;26.81;99397.78;5091721;28;19912;-47
2023/05/22 08:16:03;;;;;;;;;;;;;;;29.74;28.82;99393.59;5083762;28;19916;-46
2023/05/22 08:18:29;;;;;;;;;;;;;;;30.57;28.85;99393.50;5091123;28;19928;-46
2023/05/22 08:20:54;;;;;;;;;;;;;;;30.66;27.97;99382.38;5093129;28;19923;-47
2023/05/22 08:23:20;;;;;;;;;;;;;;;31.01;27.74;99390.88;5092991;28;20190;-47
2023/05/22 08:25:45;;;;;;;;;;;;;;;31.43;27.12;99392.41;5090993;28;19913;-46
2023/05/22 08:28:10;;;;;;;;;;;;;;;32.31;26.16;99390.34;5106203;28;20413;-47
2023/05/22 08:30:36;;;;;;;;;;;;;;;32.65;27.04;99378.91;5112287;28;20303;-46
2023/05/22 08:33:01;;;;;;;;;;;;;;;32.07;26.39;99391.34;5111477;28;19999;-47
2023/05/22 08:35:26;;;;;;;;;;;;;;;33.18;25.82;99375.66;5110881;28;19912;-47
2023/05/22 08:37:52;;;;;;;;;;;;;;;33.03;26.53;99377.31;5111351;28;19912;-46
2023/05/22 08:40:18;;;;;;;;;;;;;;;32.43;27.12;99385.88;5111771;28;19912;-48
2023/05/22 08:42:44;;;;;;;;;;;;;;;32.10;27.53;99384.31;5111844;28;19919;-47
2023/05/22 08:45:10;;;;;;;;;;;;;;;32.05;27.11;99379.91;5111530;28;19916;-47
2023/05/22 08:47:36;;;;;;;;;;;;;;;32.06;27.39;99381.50;5111067;28;19934;-47
2023/05/22 08:50:01;;;;;;;;;;;;;;;32.23;26.70;99385.00;5111474;28;20327;-46
2023/05/22 08:52:47;;;;;;;;;;;;;;;32.15;27.21;99384.06;5111832;28;19912;-46
2023/05/22 08:55:12;;;;;;;;;;;;;;;32.26;27.17;99382.34;5111857;28;19912;-46
2023/05/22 08:57:38;;;;;;;;;;;;;;;31.62;27.72;99381.53;5111496;28;19994;-46
2023/05/22 09:00:03;;;;;;;;;;;;;;;31.56;28.44;99385.72;5111403;28;19955;-45
2023/05/22 09:02:30;;;;;;;;;;;;;;;31.08;29.07;99379.31;5111792;28;19918;-46
2023/05/22 09:04:56;;;;;;;;;;;;;;;31.34;28.13;99385.13;5111911;28;19916;-45
2023/05/22 09:07:22;;;;;;;;;;;;;;;29.58;31.31;99367.94;5104708;28;19912;-46
2023/05/22 09:09:48;;;;;;;;;;;;;;;28.95;31.90;99374.34;5090964;28;19955;-46
2023/05/22 09:12:13;;;;;;;;;;;;;;;28.35;31.50;99373.63;5091472;28;19958;-48
2023/05/22 09:14:42;;;;;;;;;;;;;;;28.65;31.80;99373.59;5090846;28;19918;-45
2023/05/22 09:17:08;;;;;;;;;;;;;;;27.47;33.22;99383.28;5090721;28;19950;-45
2023/05/22 09:19:34;;;;;;;;;;;;;;;28.04;34.05;99371.22;5090850;28;20421;-47
2023/05/22 09:22:03;;;;;;;;;;;;;;;29.20;31.89;99372.50;5091027;28;20380;-47
2023/05/22 09:24:28;;;;;;;;;;;;;;;29.27;31.08;99373.94;5091417;28;20284;-45
2023/05/22 09:26:54;;;;;;;;;;;;;;;29.35;32.05;99367.56;5094992;28;20003;-47
2023/05/22 09:29:19;;;;;;;;;;;;;;;29.24;31.12;99364.44;5090372;28;19921;-45
2023/05/22 09:31:45;;;;;;;;;;;;;;;28.76;31.74;99363.84;5088809;28;20293;-45
2023/05/22 09:34:12;;;;;;;;;;;;;;;29.10;31.09;99366.66;5087595;28;19916;-46
2023/05/22 09:36:38;;;;;;;;;;;;;;;29.09;31.32;99374.03;5090142;28;20379;-46
2023/05/22 09:39:03;;;;;;;;;;;;;;;29.29;31.12;99371.66;5090724;28;20392;-46
2023/05/22 09:41:32;;;;;;;;;;;;;;;29.68;30.94;99364.75;5090395;28;19951;-46
2023/05/22 09:43:57;;;;;;;;;;;;;;;29.24;30.34;99364.44;5090846;28;19919;-46
2023/05/22 09:46:22;;;;;;;;;;;;;;;29.28;31.46;99372.78;5090105;28;19918;-46
2023/05/22 09:48:51;;;;;;;;;;;;;;;28.92;31.61;99357.75;5090572;28;20372;-46
2023/05/22 09:51:18;;;;;;;;;;;;;;;29.11;32.44;99349.06;5090372;28;19950;-46
2023/05/22 09:53:45;;;;;;;;;;;;;;;29.01;32.76;99355.75;5090939;28;19912;-46
2023/05/22 09:56:12;;;;;;;;;;;;;;;28.78;32.20;99364.31;5090610;28;19919;-47
2023/05/22 09:58:40;;;;;;;;;;;;;;;27.91;32.89;99353.88;5090260;28;20117;-47
2023/05/22 10:01:09;;;;;;;;;;;;;;;27.89;33.11;99364.34;5090483;28;19916;-46
2023/05/22 10:03:34;;;;;;;;;;;;;;;28.36;32.71;99350.59;5090314;28;20463;-47
2023/05/22 10:06:00;;;;;;;;;;;;;;;28.76;31.84;99350.16;5090734;28;19997;-47
2023/05/22 10:08:33;;;;;;;;;;;;;;;28.24;33.35;99345.06;5090559;28;19918;-47
2023/05/22 10:10:58;;;;;;;;;;;;;;;28.44;33.29;99343.47;5090705;28;19916;-47
2023/05/22 10:13:25;;;;;;;;;;;;;;;27.81;33.13;99335.09;5090276;28;19916;-46
2023/05/22 10:15:50;;;;;;;;;;;;;;;27.77;34.23;99342.34;5090982;28;20011;-46
2023/05/22 10:18:16;;;;;;;;;;;;;;;27.71;33.22;99349.94;5088816;28;20011;-46
2023/05/22 10:20:42;;;;;;;;;;;;;;;28.05;32.63;99337.28;5089685;28;19965;-46
2023/05/22 10:23:08;;;;;;;;;;;;;;;28.76;30.69;99339.22;5090233;28;19971;-46
2023/05/22 10:25:34;;;;;;;;;;;;;;;29.24;29.94;99326.06;5090289;28;19937;-39
2023/05/22 10:28:00;;;;;;;;;;;;;;;28.11;31.48;99346.09;5091770;28;20007;-40
2023/05/22 10:30:41;;;;;;;;;;;;;;;27.43;31.92;99346.81;5093994;28;19921;-40
2023/05/22 10:33:10;;;;;;;;;;;;;;;28.16;31.68;99340.41;5092338;28;19912;-40
2023/05/22 10:35:38;;;;;;;;;;;;;;;28.71;30.65;99330.41;5093079;28;19920;-40
2023/05/22 10:38:22;;;;;;;;;;;;;;;28.93;30.74;99332.00;5094542;28;20415;-40
2023/05/22 10:40:48;;;;;;;;;;;;;;;28.74;31.68;99336.00;5093535;28;19916;-40
2023/05/22 10:43:14;;;;;;;;;;;;;;;28.75;30.29;99326.69;5094318;28;20387;-40
2023/05/22 10:45:40;;;;;;;;;;;;;;;28.59;30.18;99320.22;5094002;28;19913;-39
2023/05/22 10:48:06;;;;;;;;;;;;;;;28.23;30.13;99332.50;5093973;28;19923;-40
2023/05/22 10:50:32;;;;;;;;;;;;;;;28.87;30.73;99327.88;5093208;28;20372;-35
2023/05/22 10:53:16;;;;;;;;;;;;;;;29.89;29.21;99314.53;5092671;28;19916;-34
2023/05/22 10:55:50;;;;;;;;;;;;;;;29.38;29.19;99309.34;5090411;28;20394;-36
2023/05/22 10:58:16;;;;;;;;;;;;;;;29.03;28.64;99315.13;5091966;28;19913;-36
2023/05/22 11:00:42;;;;;;;;;;;;;;;28.81;28.42;99302.63;5093259;28;19912;-35
2023/05/22 11:03:08;;;;;;;;;;;;;;;28.60;28.75;99297.19;5093691;28;19960;-35
2023/05/22 11:05:35;;;;;;;;;;;;;;;28.55;29.24;99289.97;5093035;28;19916;-35
2023/05/22 11:08:23;;;;;;;;;;;;;;;29.31;28.13;99284.44;5093355;28;20006;-36
2023/05/22 11:10:52;;;;;;;;;;;;;;;29.12;27.95;99277.50;5085764;28;20403;-36
2023/05/22 11:13:18;;;;;;;;;;;;;;;29.47;27.44;99282.59;5092925;28;19951;-36
2023/05/22 11:15:46;;;;;;;;;;;;;;;29.54;29.04;99279.31;5093050;28;19958;-36
2023/05/22 11:18:13;;;;;;;;;;;;;;;29.49;28.05;99282.28;5092825;28;19912;-40
2023/05/22 11:20:39;;;;;;;;;;;;;;;30.29;27.04;99284.44;5093130;28;19912;-40
2023/05/22 11:23:05;;;;;;;;;;;;;;;30.92;25.81;99291.34;5093177;28;19938;-36
2023/05/22 11:25:31;;;;;;;;;;;;;;;30.67;26.36;99283.19;5092955;28;19912;-36
2023/05/22 11:27:57;;;;;;;;;;;;;;;30.76;25.81;99286.56;5092573;28;19967;-36
2023/05/22 11:30:26;;;;;;;;;;;;;;;29.15;27.91;99287.00;5092975;28;20016;-36
2023/05/22 11:32:52;;;;;;;;;;;;;;;30.04;27.12;99291.88;5092999;28;19915;-36
2023/05/22 11:35:17;;;;;;;;;;;;;;;30.40;26.01;99293.78;5092892;28;20372;-36
2023/05/22 11:37:43;;;;;;;;;;;;;;;28.77;28.61;99301.69;5092681;28;19956;-36
2023/05/22 11:40:09;;;;;;;;;;;;;;;28.38;28.73;99317.44;5092013;28;20381;-35
2023/05/22 11:42:35;;;;;;;;;;;;;;;26.77;35.68;99336.09;5092138;28;19916;-36
2023/05/22 11:45:01;;;;;;;;;;;;;;;24.20;44.16;99332.59;5092726;28;20638;-40
2023/05/22 11:47:27;;;;;;;;;;;;;;;23.49;47.40;99340.16;5092503;28;19918;-40
2023/05/22 11:49:53;;;;;;;;;;;;;;;22.84;49.14;99370.78;5092304;28;19946;-40
2023/05/22 11:52:18;;;;;;;;;;;;;;;22.19;50.25;99352.38;5092513;28;19916;-41
2023/05/22 11:54:46;;;;;;;;;;;;;;;22.31;51.33;99344.66;5092616;28;20003;-40
2023/05/22 11:57:12;;;;;;;;;;;;;;;22.72;52.56;99340.59;5093017;28;20006;-40
2023/05/22 11:59:38;;;;;;;;;;;;;;;22.34;53.41;99349.50;5092513;28;20411;-41
2023/05/22 12:02:03;;;;;;;;;;;;;;;22.22;51.79;99346.41;5092560;28;19951;-41
2023/05/22 12:04:29;;;;;;;;;;;;;;;22.23;49.72;99348.00;5092610;28;19924;-40
2023/05/22 12:06:54;;;;;;;;;;;;;;;22.66;50.45;99339.88;5089482;28;20385;-40
2023/05/22 12:09:20;;;;;;;;;;;;;;;22.91;50.51;99348.72;5092393;28;19965;-40
2023/05/22 12:11:46;;;;;;;;;;;;;;;22.76;52.43;99331.56;5092001;28;19947;-40
2023/05/22 12:14:11;;;;;;;;;;;;;;;22.42;53.42;99331.78;5091657;28;19954;-40
2023/05/22 12:16:36;;;;;;;;;;;;;;;23.08;53.20;99334.66;5092477;28;20333;-40
2023/05/22 12:19:09;;;;;;;;;;;;;;;23.48;51.92;99324.22;5092153;28;20442;-40
2023/05/22 12:21:35;;;;;;;;;;;;;;;23.94;49.74;99317.91;5089173;28;20348;-41
2023/05/22 12:24:04;;;;;;;;;;;;;;;24.36;48.65;99318.69;5089321;28;19971;-40
2023/05/22 12:26:30;;;;;;;;;;;;;;;24.78;46.34;99311.22;5089496;28;19932;-41
2023/05/22 12:28:56;;;;;;;;;;;;;;;24.76;46.40;99311.53;5089832;28;20398;-41
2023/05/22 12:31:21;;;;;;;;;;;;;;;25.07;45.96;99309.97;5089599;28;20363;-40
2023/05/22 12:33:47;;;;;;;;;;;;;;;25.12;45.96;99309.88;5075808;28;19916;-40
2023/05/22 12:36:12;;;;;;;;;;;;;;;24.61;45.72;99297.50;5085571;28;20307;-40
2023/05/22 12:38:38;;;;;;;;;;;;;;;24.63;45.03;99301.50;5089378;28;19916;-41
2023/05/22 12:41:03;;;;;;;;;;;;;;;24.78;44.66;99306.56;5091627;28;20020;-40
2023/05/22 12:43:28;;;;;;;;;;;;;;;24.93;44.76;99302.69;5090208;28;19912;-40